Terminal Aerodrome Forecast
Issued by NWS Boston, MA

Home | Current Version | Previous Version | Text Only | Print | Product List | Glossary On
Versions: 1 2 3 4 5 6 7 8 9 10 11 12 13 14 15 16 17 18 19 20 21 22 23 24 25 26 27 28 29 30 31 32 33 34 35 36 37 38 39 40 41 42 43 44 45 46
695
FTUS41 KBOX 272334 AAB
TAFBOS
TAF AMD
KBOS 272334Z 2800/0106 22012G22KT P6SM SKC
     FM280100 23012KT P6SM SKC
     FM281600 12004KT P6SM BKN040
     FM281800 14006KT P6SM SCT045
     FM282300 14006KT P6SM VCSH OVC100
     FM010100 15006KT 5SM BR VCSH OVC035
     FM010400 17007KT 3SM RA BR OVC025=

USA.gov is the U.S. government's official web portal to all federal, state and local government web resources and services.